sensor_id;sensor_type;location;lat;lon;timestamp;P1;durP1;ratioP1;P2;durP2;ratioP2
74793;SDS011;63320;50.768;6.724;2024-03-07T00:00:26;46.30;;;26.60;;
74793;SDS011;63320;50.768;6.724;2024-03-07T00:02:52;46.83;;;26.05;;
74793;SDS011;63320;50.768;6.724;2024-03-07T00:05:18;43.47;;;24.38;;
74793;SDS011;63320;50.768;6.724;2024-03-07T00:07:45;41.70;;;25.02;;
74793;SDS011;63320;50.768;6.724;2024-03-07T00:10:11;44.58;;;24.52;;
74793;SDS011;63320;50.768;6.724;2024-03-07T00:12:38;42.58;;;23.52;;
74793;SDS011;63320;50.768;6.724;2024-03-07T00:15:04;45.40;;;25.38;;
74793;SDS011;63320;50.768;6.724;2024-03-07T00:17:31;44.63;;;24.33;;
74793;SDS011;63320;50.768;6.724;2024-03-07T00:19:56;41.58;;;25.00;;
74793;SDS011;63320;50.768;6.724;2024-03-07T00:22:21;41.05;;;23.05;;
74793;SDS011;63320;50.768;6.724;2024-03-07T00:24:47;39.85;;;22.83;;
74793;SDS011;63320;50.768;6.724;2024-03-07T00:27:12;39.72;;;23.38;;
74793;SDS011;63320;50.768;6.724;2024-03-07T00:29:39;39.53;;;21.98;;
74793;SDS011;63320;50.768;6.724;2024-03-07T00:32:04;40.85;;;22.48;;
74793;SDS011;63320;50.768;6.724;2024-03-07T00:34:30;41.63;;;23.08;;
74793;SDS011;63320;50.768;6.724;2024-03-07T00:36:55;43.05;;;23.20;;
74793;SDS011;63320;50.768;6.724;2024-03-07T00:39:21;39.70;;;22.50;;
74793;SDS011;63320;50.768;6.724;2024-03-07T00:41:46;43.85;;;24.50;;
74793;SDS011;63320;50.768;6.724;2024-03-07T00:44:11;41.25;;;23.23;;
74793;SDS011;63320;50.768;6.724;2024-03-07T00:46:38;40.95;;;24.38;;
74793;SDS011;63320;50.768;6.724;2024-03-07T00:49:04;40.58;;;22.10;;
74793;SDS011;63320;50.768;6.724;2024-03-07T00:51:29;42.45;;;24.42;;
74793;SDS011;63320;50.768;6.724;2024-03-07T00:53:55;39.72;;;22.52;;
74793;SDS011;63320;50.768;6.724;2024-03-07T00:56:20;41.83;;;23.08;;
74793;SDS011;63320;50.768;6.724;2024-03-07T00:58:45;43.78;;;24.80;;
74793;SDS011;63320;50.768;6.724;2024-03-07T01:01:11;41.15;;;23.58;;
74793;SDS011;63320;50.768;6.724;2024-03-07T01:03:38;42.10;;;24.13;;
74793;SDS011;63320;50.768;6.724;2024-03-07T01:06:03;45.90;;;25.67;;
74793;SDS011;63320;50.768;6.724;2024-03-07T01:08:29;45.47;;;23.65;;
74793;SDS011;63320;50.768;6.724;2024-03-07T01:10:54;44.45;;;23.70;;
74793;SDS011;63320;50.768;6.724;2024-03-07T01:13:19;43.13;;;23.55;;
74793;SDS011;63320;50.768;6.724;2024-03-07T01:15:45;46.58;;;25.95;;
74793;SDS011;63320;50.768;6.724;2024-03-07T01:18:10;46.60;;;24.98;;
74793;SDS011;63320;50.768;6.724;2024-03-07T01:20:37;42.67;;;24.25;;
74793;SDS011;63320;50.768;6.724;2024-03-07T01:23:03;44.33;;;23.92;;
74793;SDS011;63320;50.768;6.724;2024-03-07T01:25:28;43.70;;;23.58;;
74793;SDS011;63320;50.768;6.724;2024-03-07T01:27:53;45.28;;;24.85;;
74793;SDS011;63320;50.768;6.724;2024-03-07T01:30:19;43.35;;;23.45;;
74793;SDS011;63320;50.768;6.724;2024-03-07T01:32:44;44.53;;;24.88;;
74793;SDS011;63320;50.768;6.724;2024-03-07T01:35:10;43.47;;;25.10;;
74793;SDS011;63320;50.768;6.724;2024-03-07T01:37:36;42.55;;;24.85;;
74793;SDS011;63320;50.768;6.724;2024-03-07T01:40:02;43.45;;;23.33;;
74793;SDS011;63320;50.768;6.724;2024-03-07T01:42:28;36.50;;;20.60;;
74793;SDS011;63320;50.768;6.724;2024-03-07T01:44:53;39.28;;;22.20;;
74793;SDS011;63320;50.768;6.724;2024-03-07T01:47:18;38.85;;;21.15;;
74793;SDS011;63320;50.768;6.724;2024-03-07T01:49:44;40.38;;;23.40;;
74793;SDS011;63320;50.768;6.724;2024-03-07T01:52:09;37.88;;;21.70;;
74793;SDS011;63320;50.768;6.724;2024-03-07T01:54:37;39.85;;;20.98;;
74793;SDS011;63320;50.768;6.724;2024-03-07T01:57:03;36.58;;;20.48;;
74793;SDS011;63320;50.768;6.724;2024-03-07T01:59:29;44.05;;;21.63;;
74793;SDS011;63320;50.768;6.724;2024-03-07T02:01:55;37.95;;;20.83;;
74793;SDS011;63320;50.768;6.724;2024-03-07T02:04:21;39.33;;;21.15;;
74793;SDS011;63320;50.768;6.724;2024-03-07T02:06:46;39.60;;;22.95;;
74793;SDS011;63320;50.768;6.724;2024-03-07T02:09:12;39.97;;;21.75;;
74793;SDS011;63320;50.768;6.724;2024-03-07T02:11:38;45.03;;;24.23;;
74793;SDS011;63320;50.768;6.724;2024-03-07T02:14:04;43.72;;;25.77;;
74793;SDS011;63320;50.768;6.724;2024-03-07T02:16:29;42.83;;;23.77;;
74793;SDS011;63320;50.768;6.724;2024-03-07T02:18:55;45.28;;;24.83;;
74793;SDS011;63320;50.768;6.724;2024-03-07T02:21:23;42.50;;;24.50;;
74793;SDS011;63320;50.768;6.724;2024-03-07T02:23:49;45.80;;;25.83;;
74793;SDS011;63320;50.768;6.724;2024-03-07T02:26:14;46.80;;;25.30;;
74793;SDS011;63320;50.768;6.724;2024-03-07T02:28:39;47.40;;;25.45;;
74793;SDS011;63320;50.768;6.724;2024-03-07T02:31:05;47.97;;;25.08;;
74793;SDS011;63320;50.768;6.724;2024-03-07T02:33:30;45.72;;;24.67;;
74793;SDS011;63320;50.768;6.724;2024-03-07T02:35:55;45.42;;;24.25;;
74793;SDS011;63320;50.768;6.724;2024-03-07T02:38:22;49.33;;;26.55;;
74793;SDS011;63320;50.768;6.724;2024-03-07T02:40:48;49.50;;;26.05;;
74793;SDS011;63320;50.768;6.724;2024-03-07T02:43:13;46.13;;;24.05;;
74793;SDS011;63320;50.768;6.724;2024-03-07T02:45:38;45.38;;;25.60;;
74793;SDS011;63320;50.768;6.724;2024-03-07T02:48:04;46.47;;;25.48;;
74793;SDS011;63320;50.768;6.724;2024-03-07T02:50:30;44.30;;;24.52;;
74793;SDS011;63320;50.768;6.724;2024-03-07T02:52:55;40.33;;;22.65;;
74793;SDS011;63320;50.768;6.724;2024-03-07T02:55:22;40.55;;;22.00;;
74793;SDS011;63320;50.768;6.724;2024-03-07T02:57:47;41.05;;;23.63;;
74793;SDS011;63320;50.768;6.724;2024-03-07T03:00:13;41.80;;;22.38;;
74793;SDS011;63320;50.768;6.724;2024-03-07T03:02:39;41.78;;;22.45;;
74793;SDS011;63320;50.768;6.724;2024-03-07T03:05:05;39.45;;;23.23;;
74793;SDS011;63320;50.768;6.724;2024-03-07T03:07:31;37.53;;;21.85;;
74793;SDS011;63320;50.768;6.724;2024-03-07T03:09:56;41.40;;;22.45;;
74793;SDS011;63320;50.768;6.724;2024-03-07T03:12:23;40.17;;;22.92;;
74793;SDS011;63320;50.768;6.724;2024-03-07T03:14:48;44.47;;;23.60;;
74793;SDS011;63320;50.768;6.724;2024-03-07T03:17:14;42.42;;;23.48;;
74793;SDS011;63320;50.768;6.724;2024-03-07T03:19:39;42.83;;;24.90;;
74793;SDS011;63320;50.768;6.724;2024-03-07T03:22:05;45.13;;;23.95;;
74793;SDS011;63320;50.768;6.724;2024-03-07T03:24:30;49.70;;;26.08;;
74793;SDS011;63320;50.768;6.724;2024-03-07T03:26:55;48.67;;;24.50;;
74793;SDS011;63320;50.768;6.724;2024-03-07T03:29:22;46.58;;;24.55;;
74793;SDS011;63320;50.768;6.724;2024-03-07T03:31:47;47.05;;;24.88;;
74793;SDS011;63320;50.768;6.724;2024-03-07T03:34:13;44.22;;;24.52;;
74793;SDS011;63320;50.768;6.724;2024-03-07T03:36:38;48.67;;;24.83;;
74793;SDS011;63320;50.768;6.724;2024-03-07T03:39:03;44.70;;;25.42;;
74793;SDS011;63320;50.768;6.724;2024-03-07T03:41:29;47.58;;;23.95;;
74793;SDS011;63320;50.768;6.724;2024-03-07T03:43:54;46.20;;;24.40;;
74793;SDS011;63320;50.768;6.724;2024-03-07T03:46:21;47.15;;;23.48;;
74793;SDS011;63320;50.768;6.724;2024-03-07T03:48:47;43.17;;;23.17;;
74793;SDS011;63320;50.768;6.724;2024-03-07T03:51:13;46.85;;;24.60;;
74793;SDS011;63320;50.768;6.724;2024-03-07T03:53:38;46.20;;;25.55;;
74793;SDS011;63320;50.768;6.724;2024-03-07T03:56:04;44.67;;;24.38;;
74793;SDS011;63320;50.768;6.724;2024-03-07T03:58:30;45.55;;;23.48;;
74793;SDS011;63320;50.768;6.724;2024-03-07T04:00:55;42.30;;;22.83;;
74793;SDS011;63320;50.768;6.724;2024-03-07T04:03:22;48.10;;;24.40;;
74793;SDS011;63320;50.768;6.724;2024-03-07T04:05:47;44.63;;;22.95;;
74793;SDS011;63320;50.768;6.724;2024-03-07T04:08:13;43.90;;;23.88;;
74793;SDS011;63320;50.768;6.724;2024-03-07T04:10:38;40.28;;;21.23;;
74793;SDS011;63320;50.768;6.724;2024-03-07T04:13:04;44.80;;;24.70;;
74793;SDS011;63320;50.768;6.724;2024-03-07T04:15:29;45.10;;;22.88;;
74793;SDS011;63320;50.768;6.724;2024-03-07T04:17:55;42.42;;;22.02;;
74793;SDS011;63320;50.768;6.724;2024-03-07T04:20:21;44.00;;;22.40;;
74793;SDS011;63320;50.768;6.724;2024-03-07T04:22:47;43.47;;;23.38;;
74793;SDS011;63320;50.768;6.724;2024-03-07T04:25:12;43.10;;;23.10;;
74793;SDS011;63320;50.768;6.724;2024-03-07T04:27:38;42.03;;;21.73;;
74793;SDS011;63320;50.768;6.724;2024-03-07T04:30:04;43.95;;;22.52;;
74793;SDS011;63320;50.768;6.724;2024-03-07T04:32:30;40.55;;;22.38;;
74793;SDS011;63320;50.768;6.724;2024-03-07T04:34:56;45.85;;;23.35;;
74793;SDS011;63320;50.768;6.724;2024-03-07T04:37:22;42.75;;;22.75;;
74793;SDS011;63320;50.768;6.724;2024-03-07T04:39:48;43.45;;;23.65;;
74793;SDS011;63320;50.768;6.724;2024-03-07T04:42:13;46.05;;;23.40;;
74793;SDS011;63320;50.768;6.724;2024-03-07T04:44:39;44.97;;;22.65;;
74793;SDS011;63320;50.768;6.724;2024-03-07T04:47:04;45.08;;;23.65;;
74793;SDS011;63320;50.768;6.724;2024-03-07T04:49:30;44.47;;;23.48;;
74793;SDS011;63320;50.768;6.724;2024-03-07T04:51:57;40.70;;;21.70;;
74793;SDS011;63320;50.768;6.724;2024-03-07T04:54:25;43.17;;;22.88;;
74793;SDS011;63320;50.768;6.724;2024-03-07T04:56:52;40.53;;;21.20;;
74793;SDS011;63320;50.768;6.724;2024-03-07T04:59:18;42.33;;;22.30;;
74793;SDS011;63320;50.768;6.724;2024-03-07T05:01:44;45.47;;;21.52;;
74793;SDS011;63320;50.768;6.724;2024-03-07T05:04:11;45.25;;;22.23;;
74793;SDS011;63320;50.768;6.724;2024-03-07T05:06:37;39.67;;;20.75;;
74793;SDS011;63320;50.768;6.724;2024-03-07T05:09:03;37.70;;;20.30;;
74793;SDS011;63320;50.768;6.724;2024-03-07T05:11:30;38.42;;;21.05;;
74793;SDS011;63320;50.768;6.724;2024-03-07T05:13:56;39.42;;;21.23;;
74793;SDS011;63320;50.768;6.724;2024-03-07T05:16:21;41.45;;;20.65;;
74793;SDS011;63320;50.768;6.724;2024-03-07T05:18:47;40.28;;;20.30;;
74793;SDS011;63320;50.768;6.724;2024-03-07T05:21:12;38.75;;;19.85;;
74793;SDS011;63320;50.768;6.724;2024-03-07T05:23:38;42.28;;;21.70;;
74793;SDS011;63320;50.768;6.724;2024-03-07T05:26:03;39.00;;;20.33;;
74793;SDS011;63320;50.768;6.724;2024-03-07T05:28:30;40.33;;;20.10;;
74793;SDS011;63320;50.768;6.724;2024-03-07T05:30:55;37.25;;;19.55;;
74793;SDS011;63320;50.768;6.724;2024-03-07T05:33:20;38.17;;;19.90;;
74793;SDS011;63320;50.768;6.724;2024-03-07T05:35:46;34.72;;;19.65;;
74793;SDS011;63320;50.768;6.724;2024-03-07T05:38:11;40.75;;;19.77;;
74793;SDS011;63320;50.768;6.724;2024-03-07T05:40:37;41.10;;;20.88;;
74793;SDS011;63320;50.768;6.724;2024-03-07T05:43:02;38.50;;;20.38;;
74793;SDS011;63320;50.768;6.724;2024-03-07T05:45:29;38.15;;;20.10;;
74793;SDS011;63320;50.768;6.724;2024-03-07T05:47:54;39.25;;;21.20;;
74793;SDS011;63320;50.768;6.724;2024-03-07T05:50:20;40.00;;;21.30;;
74793;SDS011;63320;50.768;6.724;2024-03-07T05:52:45;39.45;;;20.60;;
74793;SDS011;63320;50.768;6.724;2024-03-07T05:55:10;39.97;;;21.00;;
74793;SDS011;63320;50.768;6.724;2024-03-07T05:57:36;40.30;;;19.85;;
74793;SDS011;63320;50.768;6.724;2024-03-07T06:00:01;44.85;;;21.15;;
74793;SDS011;63320;50.768;6.724;2024-03-07T06:02:28;40.03;;;20.88;;
74793;SDS011;63320;50.768;6.724;2024-03-07T06:04:54;41.08;;;20.38;;
74793;SDS011;63320;50.768;6.724;2024-03-07T06:07:19;39.58;;;21.42;;
74793;SDS011;63320;50.768;6.724;2024-03-07T06:09:44;41.28;;;20.02;;
74793;SDS011;63320;50.768;6.724;2024-03-07T06:12:10;38.58;;;21.90;;
74793;SDS011;63320;50.768;6.724;2024-03-07T06:14:35;41.92;;;22.02;;
74793;SDS011;63320;50.768;6.724;2024-03-07T06:17:01;37.47;;;20.38;;
74793;SDS011;63320;50.768;6.724;2024-03-07T06:19:27;40.13;;;20.65;;
74793;SDS011;63320;50.768;6.724;2024-03-07T06:21:53;42.28;;;21.88;;
74793;SDS011;63320;50.768;6.724;2024-03-07T06:24:18;40.78;;;19.63;;
74793;SDS011;63320;50.768;6.724;2024-03-07T06:26:43;40.75;;;21.15;;
74793;SDS011;63320;50.768;6.724;2024-03-07T06:29:09;42.05;;;21.23;;
74793;SDS011;63320;50.768;6.724;2024-03-07T06:31:34;39.42;;;21.38;;
74793;SDS011;63320;50.768;6.724;2024-03-07T06:34:00;38.80;;;20.73;;
74793;SDS011;63320;50.768;6.724;2024-03-07T06:36:27;45.95;;;22.13;;
74793;SDS011;63320;50.768;6.724;2024-03-07T06:38:52;48.63;;;23.70;;
74793;SDS011;63320;50.768;6.724;2024-03-07T06:41:17;40.72;;;21.33;;
74793;SDS011;63320;50.768;6.724;2024-03-07T06:43:43;42.58;;;21.40;;
74793;SDS011;63320;50.768;6.724;2024-03-07T06:46:08;41.13;;;19.15;;
74793;SDS011;63320;50.768;6.724;2024-03-07T06:48:34;40.80;;;21.27;;
74793;SDS011;63320;50.768;6.724;2024-03-07T06:50:59;46.58;;;23.05;;
74793;SDS011;63320;50.768;6.724;2024-03-07T06:53:26;46.42;;;22.35;;
74793;SDS011;63320;50.768;6.724;2024-03-07T06:55:51;46.03;;;23.38;;
74793;SDS011;63320;50.768;6.724;2024-03-07T06:58:17;41.92;;;23.25;;
74793;SDS011;63320;50.768;6.724;2024-03-07T07:00:42;44.30;;;24.08;;
74793;SDS011;63320;50.768;6.724;2024-03-07T07:03:07;40.85;;;23.35;;
74793;SDS011;63320;50.768;6.724;2024-03-07T07:05:33;37.22;;;20.17;;
74793;SDS011;63320;50.768;6.724;2024-03-07T07:07:58;38.38;;;22.10;;
74793;SDS011;63320;50.768;6.724;2024-03-07T07:10:25;40.60;;;21.63;;
74793;SDS011;63320;50.768;6.724;2024-03-07T07:12:51;41.42;;;20.92;;
74793;SDS011;63320;50.768;6.724;2024-03-07T07:15:16;40.60;;;20.83;;
74793;SDS011;63320;50.768;6.724;2024-03-07T07:17:43;37.90;;;19.30;;
74793;SDS011;63320;50.768;6.724;2024-03-07T07:20:10;40.67;;;20.13;;
74793;SDS011;63320;50.768;6.724;2024-03-07T07:22:36;42.83;;;18.83;;
74793;SDS011;63320;50.768;6.724;2024-03-07T07:25:02;38.35;;;18.63;;
74793;SDS011;63320;50.768;6.724;2024-03-07T07:27:29;38.90;;;19.05;;
74793;SDS011;63320;50.768;6.724;2024-03-07T07:29:54;36.90;;;19.50;;
74793;SDS011;63320;50.768;6.724;2024-03-07T07:32:19;37.90;;;19.35;;
74793;SDS011;63320;50.768;6.724;2024-03-07T07:34:48;34.38;;;18.35;;
74793;SDS011;63320;50.768;6.724;2024-03-07T07:37:13;35.00;;;18.13;;
74793;SDS011;63320;50.768;6.724;2024-03-07T07:39:38;33.88;;;18.48;;
74793;SDS011;63320;50.768;6.724;2024-03-07T07:42:04;35.70;;;17.55;;
74793;SDS011;63320;50.768;6.724;2024-03-07T07:44:31;38.83;;;18.08;;
74793;SDS011;63320;50.768;6.724;2024-03-07T07:46:56;34.53;;;17.15;;
74793;SDS011;63320;50.768;6.724;2024-03-07T07:49:22;35.38;;;18.58;;
74793;SDS011;63320;50.768;6.724;2024-03-07T07:51:47;36.72;;;17.95;;
74793;SDS011;63320;50.768;6.724;2024-03-07T07:54:12;33.65;;;17.30;;
74793;SDS011;63320;50.768;6.724;2024-03-07T07:56:38;34.50;;;16.67;;
74793;SDS011;63320;50.768;6.724;2024-03-07T07:59:03;32.20;;;16.30;;
74793;SDS011;63320;50.768;6.724;2024-03-07T08:01:30;37.95;;;18.33;;
74793;SDS011;63320;50.768;6.724;2024-03-07T08:03:57;33.75;;;18.48;;
74793;SDS011;63320;50.768;6.724;2024-03-07T08:06:23;35.42;;;16.98;;
74793;SDS011;63320;50.768;6.724;2024-03-07T08:08:48;34.65;;;18.98;;
74793;SDS011;63320;50.768;6.724;2024-03-07T08:11:14;35.42;;;19.05;;
74793;SDS011;63320;50.768;6.724;2024-03-07T08:13:39;39.90;;;21.10;;
74793;SDS011;63320;50.768;6.724;2024-03-07T08:16:05;47.42;;;20.40;;
74793;SDS011;63320;50.768;6.724;2024-03-07T08:18:32;38.75;;;19.80;;
74793;SDS011;63320;50.768;6.724;2024-03-07T08:20:57;36.33;;;19.40;;
74793;SDS011;63320;50.768;6.724;2024-03-07T08:23:23;39.40;;;19.50;;
74793;SDS011;63320;50.768;6.724;2024-03-07T08:25:48;39.05;;;17.67;;
74793;SDS011;63320;50.768;6.724;2024-03-07T08:28:13;35.83;;;17.80;;
74793;SDS011;63320;50.768;6.724;2024-03-07T08:30:39;58.25;;;20.85;;
74793;SDS011;63320;50.768;6.724;2024-03-07T08:33:04;72.20;;;20.73;;
74793;SDS011;63320;50.768;6.724;2024-03-07T08:35:31;39.38;;;19.58;;
74793;SDS011;63320;50.768;6.724;2024-03-07T08:37:56;47.47;;;18.17;;
74793;SDS011;63320;50.768;6.724;2024-03-07T08:40:22;42.35;;;18.92;;
74793;SDS011;63320;50.768;6.724;2024-03-07T08:42:49;38.17;;;17.88;;
74793;SDS011;63320;50.768;6.724;2024-03-07T08:45:15;46.38;;;19.00;;
74793;SDS011;63320;50.768;6.724;2024-03-07T08:47:41;38.28;;;20.63;;
74793;SDS011;63320;50.768;6.724;2024-03-07T08:50:06;52.25;;;21.15;;
74793;SDS011;63320;50.768;6.724;2024-03-07T08:52:33;56.10;;;20.75;;
74793;SDS011;63320;50.768;6.724;2024-03-07T08:54:59;221.55;;;36.47;;
74793;SDS011;63320;50.768;6.724;2024-03-07T08:57:25;173.68;;;31.63;;
74793;SDS011;63320;50.768;6.724;2024-03-07T08:59:50;93.97;;;23.42;;
74793;SDS011;63320;50.768;6.724;2024-03-07T09:02:15;212.10;;;36.50;;
74793;SDS011;63320;50.768;6.724;2024-03-07T09:04:41;114.65;;;26.38;;
74793;SDS011;63320;50.768;6.724;2024-03-07T09:07:07;342.05;;;45.08;;
74793;SDS011;63320;50.768;6.724;2024-03-07T09:09:34;135.15;;;27.73;;
74793;SDS011;63320;50.768;6.724;2024-03-07T09:11:59;101.07;;;25.23;;
74793;SDS011;63320;50.768;6.724;2024-03-07T09:14:25;249.48;;;35.67;;
74793;SDS011;63320;50.768;6.724;2024-03-07T09:16:50;449.55;;;60.65;;
74793;SDS011;63320;50.768;6.724;2024-03-07T09:19:16;200.80;;;32.42;;
74793;SDS011;63320;50.768;6.724;2024-03-07T09:21:41;80.93;;;22.58;;
74793;SDS011;63320;50.768;6.724;2024-03-07T09:24:06;56.47;;;18.90;;
74793;SDS011;63320;50.768;6.724;2024-03-07T09:26:33;36.30;;;15.50;;
74793;SDS011;63320;50.768;6.724;2024-03-07T09:28:59;57.28;;;19.15;;
74793;SDS011;63320;50.768;6.724;2024-03-07T09:31:24;89.70;;;20.33;;
74793;SDS011;63320;50.768;6.724;2024-03-07T09:33:49;89.07;;;20.15;;
74793;SDS011;63320;50.768;6.724;2024-03-07T09:36:15;54.53;;;17.30;;
74793;SDS011;63320;50.768;6.724;2024-03-07T09:38:40;82.75;;;20.38;;
74793;SDS011;63320;50.768;6.724;2024-03-07T09:41:05;193.75;;;31.83;;
74793;SDS011;63320;50.768;6.724;2024-03-07T09:43:32;60.08;;;17.10;;
74793;SDS011;63320;50.768;6.724;2024-03-07T09:45:59;42.45;;;16.23;;
74793;SDS011;63320;50.768;6.724;2024-03-07T09:48:28;44.72;;;16.77;;
74793;SDS011;63320;50.768;6.724;2024-03-07T09:50:53;38.22;;;15.90;;
74793;SDS011;63320;50.768;6.724;2024-03-07T09:53:23;31.75;;;15.35;;
74793;SDS011;63320;50.768;6.724;2024-03-07T09:55:49;31.38;;;14.73;;
74793;SDS011;63320;50.768;6.724;2024-03-07T09:58:14;37.10;;;15.85;;
74793;SDS011;63320;50.768;6.724;2024-03-07T10:00:44;117.32;;;25.98;;
74793;SDS011;63320;50.768;6.724;2024-03-07T10:03:10;83.28;;;21.05;;
74793;SDS011;63320;50.768;6.724;2024-03-07T10:05:37;52.75;;;17.23;;
74793;SDS011;63320;50.768;6.724;2024-03-07T10:08:03;87.65;;;21.15;;
74793;SDS011;63320;50.768;6.724;2024-03-07T10:10:29;75.72;;;20.10;;
74793;SDS011;63320;50.768;6.724;2024-03-07T10:12:54;77.47;;;19.48;;
74793;SDS011;63320;50.768;6.724;2024-03-07T10:15:20;65.28;;;17.63;;
74793;SDS011;63320;50.768;6.724;2024-03-07T10:17:46;131.68;;;24.60;;
74793;SDS011;63320;50.768;6.724;2024-03-07T10:20:12;79.15;;;20.35;;
74793;SDS011;63320;50.768;6.724;2024-03-07T10:22:37;178.00;;;28.17;;
74793;SDS011;63320;50.768;6.724;2024-03-07T10:25:03;167.98;;;27.92;;
74793;SDS011;63320;50.768;6.724;2024-03-07T10:27:29;104.63;;;20.85;;
74793;SDS011;63320;50.768;6.724;2024-03-07T10:29:55;61.83;;;16.75;;
74793;SDS011;63320;50.768;6.724;2024-03-07T10:32:20;38.25;;;15.18;;
74793;SDS011;63320;50.768;6.724;2024-03-07T10:34:48;31.60;;;12.68;;
74793;SDS011;63320;50.768;6.724;2024-03-07T10:37:15;30.33;;;12.40;;
74793;SDS011;63320;50.768;6.724;2024-03-07T10:39:41;24.40;;;12.27;;
74793;SDS011;63320;50.768;6.724;2024-03-07T10:42:07;38.55;;;12.32;;
74793;SDS011;63320;50.768;6.724;2024-03-07T10:44:32;26.90;;;12.75;;
74793;SDS011;63320;50.768;6.724;2024-03-07T10:47:03;40.58;;;14.00;;
74793;SDS011;63320;50.768;6.724;2024-03-07T10:49:30;27.52;;;13.55;;
74793;SDS011;63320;50.768;6.724;2024-03-07T10:52:02;38.92;;;14.10;;
74793;SDS011;63320;50.768;6.724;2024-03-07T10:54:36;174.18;;;29.65;;
74793;SDS011;63320;50.768;6.724;2024-03-07T10:57:11;269.75;;;38.45;;
74793;SDS011;63320;50.768;6.724;2024-03-07T10:59:45;448.95;;;63.00;;
74793;SDS011;63320;50.768;6.724;2024-03-07T11:02:17;269.38;;;39.40;;
74793;SDS011;63320;50.768;6.724;2024-03-07T11:04:52;174.70;;;27.02;;
74793;SDS011;63320;50.768;6.724;2024-03-07T11:07:19;86.68;;;18.42;;
74793;SDS011;63320;50.768;6.724;2024-03-07T11:09:46;47.35;;;15.75;;
74793;SDS011;63320;50.768;6.724;2024-03-07T11:12:13;36.28;;;16.67;;
74793;SDS011;63320;50.768;6.724;2024-03-07T11:14:39;88.93;;;19.42;;
74793;SDS011;63320;50.768;6.724;2024-03-07T11:17:07;232.60;;;35.60;;
74793;SDS011;63320;50.768;6.724;2024-03-07T11:19:34;143.85;;;25.13;;
74793;SDS011;63320;50.768;6.724;2024-03-07T11:21:59;206.82;;;30.17;;
74793;SDS011;63320;50.768;6.724;2024-03-07T11:24:27;311.02;;;42.00;;
74793;SDS011;63320;50.768;6.724;2024-03-07T11:26:54;448.50;;;56.17;;
74793;SDS011;63320;50.768;6.724;2024-03-07T11:29:39;219.45;;;33.90;;
74793;SDS011;63320;50.768;6.724;2024-03-07T11:32:06;47.30;;;15.52;;
74793;SDS011;63320;50.768;6.724;2024-03-07T11:34:31;58.05;;;16.33;;
74793;SDS011;63320;50.768;6.724;2024-03-07T11:36:57;59.40;;;16.73;;
74793;SDS011;63320;50.768;6.724;2024-03-07T11:39:42;32.53;;;14.70;;
74793;SDS011;63320;50.768;6.724;2024-03-07T11:42:08;28.35;;;14.20;;
74793;SDS011;63320;50.768;6.724;2024-03-07T11:44:34;39.05;;;14.75;;
74793;SDS011;63320;50.768;6.724;2024-03-07T11:47:00;36.35;;;14.88;;
74793;SDS011;63320;50.768;6.724;2024-03-07T11:49:25;34.47;;;14.13;;
74793;SDS011;63320;50.768;6.724;2024-03-07T11:51:51;39.65;;;15.18;;
74793;SDS011;63320;50.768;6.724;2024-03-07T11:54:16;51.47;;;15.45;;
74793;SDS011;63320;50.768;6.724;2024-03-07T11:56:43;45.65;;;15.80;;
74793;SDS011;63320;50.768;6.724;2024-03-07T11:59:08;122.22;;;23.92;;
74793;SDS011;63320;50.768;6.724;2024-03-07T12:01:35;135.50;;;23.88;;
74793;SDS011;63320;50.768;6.724;2024-03-07T12:04:00;72.47;;;18.05;;
74793;SDS011;63320;50.768;6.724;2024-03-07T12:06:26;219.88;;;31.63;;
74793;SDS011;63320;50.768;6.724;2024-03-07T12:08:51;109.50;;;22.90;;
74793;SDS011;63320;50.768;6.724;2024-03-07T12:11:16;156.88;;;27.60;;
74793;SDS011;63320;50.768;6.724;2024-03-07T12:13:43;157.43;;;28.58;;
74793;SDS011;63320;50.768;6.724;2024-03-07T12:16:09;74.45;;;17.98;;
74793;SDS011;63320;50.768;6.724;2024-03-07T12:18:34;33.28;;;13.82;;
74793;SDS011;63320;50.768;6.724;2024-03-07T12:21:01;44.70;;;13.65;;
74793;SDS011;63320;50.768;6.724;2024-03-07T12:23:26;39.55;;;13.75;;
74793;SDS011;63320;50.768;6.724;2024-03-07T12:25:58;51.78;;;13.88;;
74793;SDS011;63320;50.768;6.724;2024-03-07T12:28:25;36.65;;;13.20;;
74793;SDS011;63320;50.768;6.724;2024-03-07T12:30:52;32.00;;;12.40;;
74793;SDS011;63320;50.768;6.724;2024-03-07T12:33:19;40.08;;;12.55;;
74793;SDS011;63320;50.768;6.724;2024-03-07T12:35:46;35.42;;;13.32;;
74793;SDS011;63320;50.768;6.724;2024-03-07T12:38:12;31.52;;;13.50;;
74793;SDS011;63320;50.768;6.724;2024-03-07T12:40:38;23.63;;;12.25;;
74793;SDS011;63320;50.768;6.724;2024-03-07T12:43:12;29.75;;;12.07;;
74793;SDS011;63320;50.768;6.724;2024-03-07T12:45:42;33.35;;;12.95;;
74793;SDS011;63320;50.768;6.724;2024-03-07T12:48:09;23.65;;;12.13;;
74793;SDS011;63320;50.768;6.724;2024-03-07T12:50:35;28.85;;;12.73;;
74793;SDS011;63320;50.768;6.724;2024-03-07T12:53:00;25.58;;;11.05;;
74793;SDS011;63320;50.768;6.724;2024-03-07T12:55:26;25.42;;;13.02;;
74793;SDS011;63320;50.768;6.724;2024-03-07T12:57:51;26.40;;;12.50;;
74793;SDS011;63320;50.768;6.724;2024-03-07T13:00:17;35.70;;;12.48;;
74793;SDS011;63320;50.768;6.724;2024-03-07T13:02:43;40.88;;;14.48;;
74793;SDS011;63320;50.768;6.724;2024-03-07T13:05:09;101.50;;;18.63;;
74793;SDS011;63320;50.768;6.724;2024-03-07T13:07:35;157.35;;;24.35;;
74793;SDS011;63320;50.768;6.724;2024-03-07T13:10:00;86.18;;;16.67;;
74793;SDS011;63320;50.768;6.724;2024-03-07T13:12:26;54.47;;;13.02;;
74793;SDS011;63320;50.768;6.724;2024-03-07T13:14:51;93.30;;;16.98;;
74793;SDS011;63320;50.768;6.724;2024-03-07T13:17:16;85.57;;;15.63;;
74793;SDS011;63320;50.768;6.724;2024-03-07T13:19:42;96.10;;;16.75;;
74793;SDS011;63320;50.768;6.724;2024-03-07T13:22:10;80.70;;;15.90;;
74793;SDS011;63320;50.768;6.724;2024-03-07T13:24:35;124.82;;;19.58;;
74793;SDS011;63320;50.768;6.724;2024-03-07T13:27:00;86.05;;;16.92;;
74793;SDS011;63320;50.768;6.724;2024-03-07T13:29:26;52.53;;;14.18;;
74793;SDS011;63320;50.768;6.724;2024-03-07T13:31:52;68.88;;;15.07;;
74793;SDS011;63320;50.768;6.724;2024-03-07T13:34:17;174.88;;;22.50;;
74793;SDS011;63320;50.768;6.724;2024-03-07T13:36:43;90.50;;;15.98;;
74793;SDS011;63320;50.768;6.724;2024-03-07T13:39:11;54.78;;;13.60;;
74793;SDS011;63320;50.768;6.724;2024-03-07T13:41:37;52.45;;;12.00;;
74793;SDS011;63320;50.768;6.724;2024-03-07T13:44:03;31.48;;;10.23;;
74793;SDS011;63320;50.768;6.724;2024-03-07T13:46:29;46.08;;;11.30;;
74793;SDS011;63320;50.768;6.724;2024-03-07T13:48:54;35.88;;;11.63;;
74793;SDS011;63320;50.768;6.724;2024-03-07T13:51:20;27.42;;;8.98;;
74793;SDS011;63320;50.768;6.724;2024-03-07T13:53:45;18.98;;;7.78;;
74793;SDS011;63320;50.768;6.724;2024-03-07T13:59:10;20.73;;;8.98;;
74793;SDS011;63320;50.768;6.724;2024-03-07T14:01:50;16.65;;;8.23;;
74793;SDS011;63320;50.768;6.724;2024-03-07T14:04:38;24.40;;;8.50;;
74793;SDS011;63320;50.768;6.724;2024-03-07T14:07:22;36.67;;;9.15;;
74793;SDS011;63320;50.768;6.724;2024-03-07T14:10:13;18.33;;;8.55;;
74793;SDS011;63320;50.768;6.724;2024-03-07T14:13:06;18.58;;;8.40;;
74793;SDS011;63320;50.768;6.724;2024-03-07T14:16:05;23.15;;;10.13;;
74793;SDS011;63320;50.768;6.724;2024-03-07T14:18:50;61.20;;;11.43;;